createdAt,value
2018-09-01T00:00:17.314Z,42.33
2018-09-01T00:02:51.925Z,43.60
2018-09-01T00:05:26.482Z,46.67
2018-09-01T00:08:01.087Z,39.43
2018-09-01T00:10:35.904Z,35.70
2018-09-01T00:13:10.670Z,35.07
2018-09-01T00:15:45.321Z,34.87
2018-09-01T00:18:19.849Z,42.73
2018-09-01T00:20:54.692Z,37.37
2018-09-01T00:23:29.312Z,39.20
2018-09-01T00:26:04.003Z,40.73
2018-09-01T00:28:38.682Z,37.57
2018-09-01T00:31:13.405Z,48.50
2018-09-01T00:33:48.142Z,34.13
2018-09-01T00:36:23.079Z,35.63
2018-09-01T00:39:08.357Z,29.67
2018-09-01T00:41:43.062Z,36.53
2018-09-01T00:44:17.677Z,35.70
2018-09-01T00:46:52.232Z,34.43
2018-09-01T00:49:26.738Z,39.23
2018-09-01T00:52:01.579Z,45.77
2018-09-01T00:54:36.175Z,41.67
2018-09-01T00:57:10.845Z,44.00
2018-09-01T00:59:45.419Z,49.93
2018-09-01T01:02:20.481Z,54.37
2018-09-01T01:04:55.196Z,55.07
2018-09-01T01:07:29.918Z,51.37
2018-09-01T01:10:04.805Z,55.37
2018-09-01T01:12:39.605Z,48.90
2018-09-01T01:15:14.498Z,36.23
2018-09-01T01:17:49.249Z,32.70
2018-09-01T01:20:23.809Z,53.63
2018-09-01T01:22:58.519Z,46.33
2018-09-01T01:25:33.074Z,45.60
2018-09-01T01:28:08.058Z,49.20
2018-09-01T01:30:42.750Z,47.17
2018-09-01T01:33:17.582Z,40.53
2018-09-01T01:35:52.238Z,42.57
2018-09-01T01:38:27.093Z,43.20
2018-09-01T01:41:01.706Z,38.77
2018-09-01T01:43:36.721Z,40.37
2018-09-01T01:46:11.199Z,41.57
2018-09-01T01:48:46.120Z,43.37
2018-09-01T01:51:20.968Z,36.97
2018-09-01T01:53:55.518Z,39.80
2018-09-01T01:56:30.183Z,41.47
2018-09-01T01:59:05.563Z,44.23
2018-09-01T02:01:40.078Z,39.13
2018-09-01T02:04:14.694Z,38.30
2018-09-01T02:06:49.430Z,32.67
2018-09-01T02:09:24.363Z,38.83
2018-09-01T02:11:58.835Z,31.60
2018-09-01T02:14:33.569Z,34.60
2018-09-01T02:17:08.261Z,34.10
2018-09-01T02:19:42.902Z,33.53
2018-09-01T02:22:17.421Z,33.70
2018-09-01T02:24:52.010Z,35.17
2018-09-01T02:27:26.890Z,36.20
2018-09-01T02:30:01.513Z,34.97
2018-09-01T02:32:36.219Z,37.13
2018-09-01T02:35:10.746Z,32.93
2018-09-01T02:37:45.578Z,32.07
2018-09-01T02:40:20.114Z,28.67
2018-09-01T02:42:54.726Z,32.07
2018-09-01T02:45:29.316Z,38.27
2018-09-01T02:48:03.916Z,31.53
2018-09-01T02:50:38.774Z,34.10
2018-09-01T02:53:13.334Z,35.07
2018-09-01T02:55:47.910Z,39.00
2018-09-01T02:58:22.446Z,38.30
2018-09-01T03:01:02.543Z,34.53
2018-09-01T03:03:37.387Z,38.93
2018-09-01T03:06:12.043Z,32.20
2018-09-01T03:08:46.729Z,37.93
2018-09-01T03:11:21.350Z,38.10
2018-09-01T03:13:56.079Z,40.70
2018-09-01T03:16:30.562Z,37.50
2018-09-01T03:19:05.723Z,36.20
2018-09-01T03:21:40.478Z,37.53
2018-09-01T03:24:15.458Z,32.37
2018-09-01T03:26:50.055Z,36.77
2018-09-01T03:29:24.590Z,40.20
2018-09-01T03:31:59.171Z,39.93
2018-09-01T03:34:33.733Z,33.40
2018-09-01T03:37:08.729Z,37.80
2018-09-01T03:39:43.318Z,35.30
2018-09-01T03:42:18.029Z,33.20
2018-09-01T03:44:52.838Z,38.90
2018-09-01T03:47:21.866Z,41.20
2018-09-01T03:49:50.974Z,35.43
2018-09-01T03:52:20.016Z,31.83
2018-09-01T03:54:49.052Z,34.70
2018-09-01T03:57:18.330Z,32.67
2018-09-01T03:59:47.404Z,35.90
2018-09-01T04:02:16.517Z,37.53
2018-09-01T04:04:46.134Z,40.97
2018-09-01T04:07:15.255Z,38.37
2018-09-01T04:09:44.338Z,34.13
2018-09-01T04:12:13.402Z,36.00
2018-09-01T04:14:42.484Z,33.73
2018-09-01T04:17:11.552Z,36.17
2018-09-01T04:19:40.622Z,36.20
2018-09-01T04:22:09.639Z,39.80
2018-09-01T04:24:38.698Z,36.20
2018-09-01T04:27:07.729Z,35.80
2018-09-01T04:29:36.746Z,33.13
2018-09-01T04:32:05.917Z,39.43
2018-09-01T04:34:34.879Z,38.40
2018-09-01T04:37:03.918Z,29.80
2018-09-01T04:39:33.152Z,30.80
2018-09-01T04:42:02.206Z,31.20
2018-09-01T04:44:31.225Z,33.57
2018-09-01T04:47:00.324Z,32.80
2018-09-01T04:49:29.401Z,35.57
2018-09-01T04:51:58.427Z,37.93
2018-09-01T04:54:27.511Z,40.57
2018-09-01T04:56:56.530Z,45.87
2018-09-01T04:59:25.538Z,41.80
2018-09-01T05:01:54.600Z,38.60
2018-09-01T05:04:23.616Z,39.63
2018-09-01T05:06:52.698Z,35.00
2018-09-01T05:09:21.778Z,36.70
2018-09-01T05:11:50.790Z,40.53
2018-09-01T05:14:19.820Z,38.57
2018-09-01T05:16:48.964Z,35.03
2018-09-01T05:19:17.997Z,36.43
2018-09-01T05:21:47.138Z,38.13
2018-09-01T05:24:16.131Z,34.87
2018-09-01T05:26:45.209Z,36.67
2018-09-01T05:29:14.228Z,35.43
2018-09-01T05:31:43.246Z,37.13
2018-09-01T05:34:12.305Z,36.00
2018-09-01T05:36:41.425Z,34.33
2018-09-01T05:39:10.442Z,32.30
2018-09-01T05:41:39.470Z,30.53
2018-09-01T05:44:08.535Z,32.80
2018-09-01T05:46:37.568Z,36.20
2018-09-01T05:49:06.579Z,30.80
2018-09-01T05:51:35.630Z,28.90
2018-09-01T05:54:04.712Z,31.20
2018-09-01T05:56:33.755Z,31.23
2018-09-01T05:59:02.809Z,33.17
2018-09-01T06:01:31.867Z,33.50
2018-09-01T06:04:00.929Z,26.97
2018-09-01T06:06:30.324Z,28.43
2018-09-01T06:08:59.295Z,29.73
2018-09-01T06:11:28.333Z,27.53
2018-09-01T06:13:57.377Z,26.53
2018-09-01T06:16:26.374Z,29.53
2018-09-01T06:18:55.430Z,31.10
2018-09-01T06:21:24.455Z,26.50
2018-09-01T06:23:53.592Z,30.43
2018-09-01T06:26:22.571Z,26.63
2018-09-01T06:28:59.689Z,27.60
2018-09-01T06:31:28.764Z,26.23
2018-09-01T06:33:57.818Z,27.33
2018-09-01T06:36:26.874Z,26.90
2018-09-01T06:38:55.959Z,24.03
2018-09-01T06:41:24.995Z,28.47
2018-09-01T06:43:54.174Z,24.30
2018-09-01T06:46:23.239Z,26.17
2018-09-01T06:48:52.385Z,20.97
2018-09-01T06:51:21.443Z,24.43
2018-09-01T06:53:50.833Z,23.20
2018-09-01T06:56:19.932Z,21.87
2018-09-01T06:58:49.326Z,25.20
2018-09-01T07:01:18.402Z,22.23
2018-09-01T07:03:47.410Z,24.30
2018-09-01T07:06:16.511Z,24.50
2018-09-01T07:08:45.616Z,25.03
2018-09-01T07:11:15.011Z,22.80
2018-09-01T07:13:44.107Z,19.73
2018-09-01T07:16:13.158Z,18.90
2018-09-01T07:18:42.213Z,22.90
2018-09-01T07:21:11.239Z,18.50
2018-09-01T07:23:40.252Z,16.90
2018-09-01T07:26:09.317Z,19.50
2018-09-01T07:28:38.313Z,17.10
2018-09-01T07:31:07.732Z,16.63
2018-09-01T07:33:36.474Z,17.83
2018-09-01T07:36:06.730Z,16.03
2018-09-01T07:38:35.803Z,14.77
2018-09-01T07:41:05.099Z,15.10
2018-09-01T07:43:34.148Z,20.03
2018-09-01T07:46:03.172Z,15.30
2018-09-01T07:48:32.641Z,13.70
2018-09-01T07:51:01.910Z,14.80
2018-09-01T07:53:30.914Z,20.27
2018-09-01T07:56:00.025Z,14.03
2018-09-01T07:58:29.046Z,15.13
2018-09-01T08:00:58.130Z,13.47
2018-09-01T08:03:27.156Z,16.33
2018-09-01T08:05:56.172Z,14.30
2018-09-01T08:08:25.230Z,14.87
2018-09-01T08:10:54.307Z,15.53
2018-09-01T08:13:23.351Z,13.10
2018-09-01T08:15:52.415Z,15.47
2018-09-01T08:18:21.499Z,13.30
2018-09-01T08:20:50.570Z,13.87
2018-09-01T08:23:20.570Z,12.00
2018-09-01T08:25:49.694Z,12.80
2018-09-01T08:28:18.837Z,11.20
2018-09-01T08:30:47.902Z,10.93
2018-09-01T08:33:16.925Z,10.70
2018-09-01T08:35:45.983Z,10.60
2018-09-01T08:38:15.766Z,10.67
2018-09-01T08:40:44.814Z,10.67
2018-09-01T08:43:13.903Z,11.77
2018-09-01T08:45:42.969Z,11.60
2018-09-01T08:48:12.156Z,11.47
2018-09-01T08:50:41.202Z,13.40
2018-09-01T08:53:10.323Z,10.83
2018-09-01T08:55:39.488Z,12.80
2018-09-01T08:58:08.552Z,12.17
2018-09-01T09:00:37.674Z,11.10
2018-09-01T09:03:07.050Z,10.80
2018-09-01T09:05:36.153Z,9.53
2018-09-01T09:08:05.287Z,11.87
2018-09-01T09:10:34.371Z,9.57
2018-09-01T09:13:03.414Z,13.10
2018-09-01T09:15:32.527Z,8.60
2018-09-01T09:18:01.643Z,9.77
2018-09-01T09:20:30.670Z,10.07
2018-09-01T09:22:59.971Z,11.87
2018-09-01T09:25:29.106Z,12.20
2018-09-01T09:27:58.812Z,12.07
2018-09-01T09:30:27.954Z,11.87
2018-09-01T09:32:57.017Z,11.30
2018-09-01T09:35:26.045Z,11.20
2018-09-01T09:37:55.293Z,12.90
2018-09-01T09:40:24.321Z,10.70
2018-09-01T09:42:53.377Z,12.33
2018-09-01T09:45:23.196Z,9.77
2018-09-01T09:47:52.286Z,11.07
2018-09-01T09:50:21.490Z,9.93
2018-09-01T09:52:50.654Z,10.43
2018-09-01T09:55:19.644Z,10.37
2018-09-01T09:57:48.684Z,10.30
2018-09-01T10:00:22.215Z,9.40
2018-09-01T10:02:51.217Z,14.33
2018-09-01T10:05:20.268Z,9.17
2018-09-01T10:07:49.654Z,12.80
2018-09-01T10:10:18.684Z,9.50
2018-09-01T10:12:47.710Z,9.27
2018-09-01T10:15:16.783Z,10.73
2018-09-01T10:17:45.802Z,9.53
2018-09-01T10:20:15.135Z,10.50
2018-09-01T10:22:44.204Z,9.40
2018-09-01T10:25:13.646Z,12.83
2018-09-01T10:27:42.698Z,12.90
2018-09-01T10:30:11.798Z,9.90
2018-09-01T10:32:40.895Z,10.13
2018-09-01T10:35:10.624Z,9.57
2018-09-01T10:37:39.643Z,9.27
2018-09-01T10:40:08.734Z,11.50
2018-09-01T10:42:38.122Z,9.57
2018-09-01T10:45:07.218Z,8.47
2018-09-01T10:47:36.271Z,8.53
2018-09-01T10:50:05.710Z,8.63
2018-09-01T10:52:34.755Z,11.13
2018-09-01T10:55:03.871Z,11.30
2018-09-01T10:57:32.965Z,9.77
2018-09-01T11:00:02.015Z,10.07
2018-09-01T11:02:31.030Z,12.50
2018-09-01T11:05:00.091Z,10.80
2018-09-01T11:07:29.182Z,9.87
2018-09-01T11:09:58.234Z,10.33
2018-09-01T11:12:27.244Z,8.53
2018-09-01T11:14:56.310Z,9.13
2018-09-01T11:17:25.394Z,8.17
2018-09-01T11:19:54.473Z,8.73
2018-09-01T11:22:23.554Z,9.50
2018-09-01T11:24:52.605Z,9.10
2018-09-01T11:27:21.630Z,11.43
2018-09-01T11:29:50.650Z,10.57
2018-09-01T11:32:19.681Z,11.47
2018-09-01T11:34:48.711Z,8.30
2018-09-01T11:37:17.787Z,8.50
2018-09-01T11:39:46.978Z,9.93
2018-09-01T11:42:16.070Z,8.77
2018-09-01T11:44:45.106Z,8.07
2018-09-01T11:47:14.130Z,17.53
2018-09-01T11:49:43.202Z,9.90
2018-09-01T11:52:12.742Z,11.60
2018-09-01T11:54:41.801Z,8.13
2018-09-01T11:57:10.832Z,9.33
2018-09-01T11:59:39.904Z,9.97
2018-09-01T12:02:09.034Z,8.63
2018-09-01T12:04:38.150Z,8.93
2018-09-01T12:07:07.235Z,9.53
2018-09-01T12:09:36.267Z,10.23
2018-09-01T12:12:05.768Z,8.90
2018-09-01T12:14:34.807Z,8.10
2018-09-01T12:17:03.839Z,8.90
2018-09-01T12:19:34.151Z,6.30
2018-09-01T12:22:03.339Z,9.07
2018-09-01T12:24:32.374Z,8.67
2018-09-01T12:27:01.418Z,12.03
2018-09-01T12:29:30.858Z,7.87
2018-09-01T12:31:59.866Z,9.47
2018-09-01T12:34:28.906Z,7.37
2018-09-01T12:36:58.373Z,7.67
2018-09-01T12:39:27.430Z,10.53
2018-09-01T12:41:56.502Z,7.30
2018-09-01T12:44:25.590Z,6.33
2018-09-01T12:46:54.675Z,9.70
2018-09-01T12:49:23.807Z,9.40
2018-09-01T12:51:53.220Z,6.53
2018-09-01T12:54:22.336Z,5.87
2018-09-01T12:56:51.387Z,9.10
2018-09-01T12:59:20.479Z,6.80
2018-09-01T13:01:49.739Z,6.57
2018-09-01T13:04:18.767Z,6.70
2018-09-01T13:06:47.816Z,6.53
2018-09-01T13:09:16.908Z,5.63
2018-09-01T13:11:46.207Z,8.00
2018-09-01T13:14:15.215Z,5.77
2018-09-01T13:16:44.239Z,5.30
2018-09-01T13:19:13.327Z,7.03
2018-09-01T13:21:42.356Z,7.13
2018-09-01T13:24:12.489Z,5.83
2018-09-01T13:26:41.529Z,7.63
2018-09-01T13:29:11.342Z,5.33
2018-09-01T13:31:40.506Z,7.37
2018-09-01T13:34:10.379Z,8.70
2018-09-01T13:36:39.501Z,5.70
2018-09-01T13:39:08.515Z,5.80
2018-09-01T13:41:37.518Z,4.93
2018-09-01T13:44:06.589Z,4.40
2018-09-01T13:46:35.610Z,7.47
2018-09-01T13:49:04.731Z,7.53
2018-09-01T13:51:33.751Z,8.50
2018-09-01T13:54:02.853Z,5.50
2018-09-01T13:56:31.934Z,6.87
2018-09-01T13:59:00.987Z,4.00
2018-09-01T14:01:30.086Z,6.93
2018-09-01T14:03:59.125Z,8.63
2018-09-01T14:06:28.516Z,7.43
2018-09-01T14:08:57.610Z,4.87
2018-09-01T14:11:26.681Z,5.90
2018-09-01T14:13:55.774Z,6.20
2018-09-01T14:16:24.835Z,5.33
2018-09-01T14:18:54.121Z,5.90
2018-09-01T14:21:23.186Z,5.43
2018-09-01T14:23:52.240Z,5.70
2018-09-01T14:26:21.306Z,7.00
2018-09-01T14:28:50.431Z,5.60
2018-09-01T14:31:19.493Z,7.60
2018-09-01T14:33:48.509Z,6.43
2018-09-01T14:36:17.675Z,5.93
2018-09-01T14:38:46.884Z,4.33
2018-09-01T14:41:15.893Z,5.70
2018-09-01T14:43:44.954Z,4.50
2018-09-01T14:46:15.043Z,4.50
2018-09-01T14:48:44.138Z,5.50
2018-09-01T14:51:13.207Z,5.40
2018-09-01T14:53:42.258Z,5.83
2018-09-01T14:56:11.327Z,5.67
2018-09-01T14:58:40.390Z,6.13
2018-09-01T15:01:10.023Z,6.30
2018-09-01T15:03:39.018Z,9.57
2018-09-01T15:06:08.103Z,4.53
2018-09-01T15:08:38.274Z,5.80
2018-09-01T15:11:08.066Z,6.47
2018-09-01T15:13:37.121Z,6.00
2018-09-01T15:16:06.269Z,4.30
2018-09-01T15:18:35.343Z,5.23
2018-09-01T15:21:04.474Z,5.03
2018-09-01T15:23:33.569Z,3.90
2018-09-01T15:26:02.635Z,5.80
2018-09-01T15:28:31.681Z,7.43
2018-09-01T15:31:00.754Z,5.97
2018-09-01T15:33:29.803Z,5.37
2018-09-01T15:35:59.173Z,4.17
2018-09-01T15:38:28.247Z,5.00
2018-09-01T15:40:57.266Z,7.50
2018-09-01T15:43:26.328Z,4.90
2018-09-01T15:45:55.399Z,5.00
2018-09-01T15:48:24.454Z,6.77
2018-09-01T15:50:53.570Z,5.33
2018-09-01T15:53:22.578Z,6.80
2018-09-01T15:55:51.607Z,4.57
2018-09-01T15:58:20.670Z,5.70
2018-09-01T16:00:49.679Z,6.30
2018-09-01T16:03:21.965Z,5.80
2018-09-01T16:05:51.138Z,3.90
2018-09-01T16:08:20.388Z,4.70
2018-09-01T16:10:49.479Z,5.00
2018-09-01T16:13:18.562Z,10.33
2018-09-01T16:15:47.679Z,5.53
2018-09-01T16:18:16.749Z,6.30
2018-09-01T16:20:45.759Z,6.20
2018-09-01T16:23:14.803Z,10.13
2018-09-01T16:25:43.853Z,8.03
2018-09-01T16:28:12.918Z,6.30
2018-09-01T16:30:41.958Z,7.30
2018-09-01T16:33:10.989Z,4.50
2018-09-01T16:35:40.042Z,5.33
2018-09-01T16:38:09.107Z,6.43
2018-09-01T16:40:38.110Z,5.20
2018-09-01T16:43:07.163Z,7.57
2018-09-01T16:45:36.160Z,6.53
2018-09-01T16:48:05.255Z,5.13
2018-09-01T16:50:34.360Z,8.93
2018-09-01T16:53:03.714Z,4.30
2018-09-01T16:55:33.016Z,8.20
2018-09-01T16:58:02.044Z,9.50
2018-09-01T17:00:31.403Z,3.90
2018-09-01T17:03:00.393Z,4.30
2018-09-01T17:05:29.431Z,4.67
2018-09-01T17:07:58.526Z,5.80
2018-09-01T17:10:27.587Z,4.83
2018-09-01T17:12:56.653Z,6.40
2018-09-01T17:15:25.711Z,3.97
2018-09-01T17:17:55.322Z,4.43
2018-09-01T17:20:24.370Z,6.30
2018-09-01T17:22:53.415Z,5.20
2018-09-01T17:25:22.475Z,5.37
2018-09-01T17:27:52.106Z,4.13
2018-09-01T17:30:21.542Z,5.10
2018-09-01T17:32:50.576Z,9.03
2018-09-01T17:35:20.227Z,5.20
2018-09-01T17:37:49.329Z,4.70
2018-09-01T17:40:18.329Z,4.37
2018-09-01T17:42:48.512Z,3.87
2018-09-01T17:45:17.605Z,7.93
2018-09-01T17:47:46.610Z,4.83
2018-09-01T17:50:15.690Z,8.37
2018-09-01T17:52:44.719Z,7.17
2018-09-01T17:55:13.837Z,5.83
2018-09-01T17:57:42.853Z,8.53
2018-09-01T18:00:11.917Z,5.87
2018-09-01T18:02:40.990Z,5.10
2018-09-01T18:05:10.511Z,4.13
2018-09-01T18:07:39.517Z,5.97
2018-09-01T18:10:08.582Z,6.00
2018-09-01T18:12:37.635Z,6.77
2018-09-01T18:15:06.706Z,10.63
2018-09-01T18:17:35.840Z,6.70
2018-09-01T18:20:05.259Z,5.30
2018-09-01T18:22:34.320Z,5.23
2018-09-01T18:25:03.693Z,4.70
2018-09-01T18:27:32.683Z,5.10
2018-09-01T18:30:01.750Z,5.50
2018-09-01T18:32:30.801Z,10.00
2018-09-01T18:34:59.966Z,9.57
2018-09-01T18:37:29.036Z,6.90
2018-09-01T18:39:58.097Z,9.87
2018-09-01T18:42:27.222Z,6.70
2018-09-01T18:44:56.283Z,7.33
2018-09-01T18:47:25.391Z,11.73
2018-09-01T18:49:54.453Z,11.57
2018-09-01T18:52:23.826Z,5.33
2018-09-01T18:54:52.837Z,6.27
2018-09-01T18:57:21.886Z,9.43
2018-09-01T18:59:50.973Z,7.40
2018-09-01T19:02:20.032Z,6.10
2018-09-01T19:04:49.171Z,8.47
2018-09-01T19:07:18.857Z,13.50
2018-09-01T19:09:48.676Z,7.10
2018-09-01T19:12:17.760Z,8.97
2018-09-01T19:14:46.819Z,8.50
2018-09-01T19:17:15.860Z,9.00
2018-09-01T19:19:44.900Z,6.90
2018-09-01T19:22:13.983Z,6.60
2018-09-01T19:24:43.298Z,8.37
2018-09-01T19:27:12.308Z,6.03
2018-09-01T19:29:41.302Z,9.70
2018-09-01T19:32:10.333Z,5.77
2018-09-01T19:34:39.449Z,6.27
2018-09-01T19:37:08.645Z,7.63
2018-09-01T19:39:37.674Z,9.67
2018-09-01T19:42:06.738Z,7.13
2018-09-01T19:44:35.892Z,5.90
2018-09-01T19:47:05.265Z,6.23
2018-09-01T19:49:34.303Z,7.97
2018-09-01T19:52:03.294Z,6.80
2018-09-01T19:54:32.311Z,7.70
2018-09-01T19:57:01.612Z,7.40
2018-09-01T19:59:30.711Z,6.20
2018-09-01T20:01:59.713Z,7.33
2018-09-01T20:04:28.829Z,6.10
2018-09-01T20:06:58.545Z,10.07
2018-09-01T20:09:28.193Z,7.03
2018-09-01T20:11:57.231Z,8.27
2018-09-01T20:14:26.310Z,6.00
2018-09-01T20:16:55.312Z,7.47
2018-09-01T20:19:24.630Z,6.57
2018-09-01T20:21:54.152Z,14.33
2018-09-01T20:24:23.168Z,6.23
2018-09-01T20:26:52.210Z,6.07
2018-09-01T20:29:21.312Z,6.50
2018-09-01T20:31:50.403Z,7.23
2018-09-01T20:34:19.374Z,6.90
2018-09-01T20:36:48.397Z,6.20
2018-09-01T20:39:17.471Z,9.90
2018-09-01T20:41:46.494Z,13.47
2018-09-01T20:44:15.482Z,6.07
2018-09-01T20:46:44.610Z,6.03
2018-09-01T20:49:13.618Z,6.20
2018-09-01T20:51:42.647Z,6.93
2018-09-01T20:54:11.746Z,8.33
2018-09-01T20:56:40.807Z,7.03
2018-09-01T20:59:10.023Z,7.83
2018-09-01T21:01:39.078Z,6.83
2018-09-01T21:04:08.167Z,8.37
2018-09-01T21:06:37.155Z,7.80
2018-09-01T21:09:11.779Z,6.50
2018-09-01T21:11:46.495Z,15.53
2018-09-01T21:14:21.030Z,7.00
2018-09-01T21:16:55.661Z,7.10
2018-09-01T21:19:30.398Z,6.17
2018-09-01T21:22:05.142Z,6.33
2018-09-01T21:24:39.862Z,10.30
2018-09-01T21:27:14.459Z,9.27
2018-09-01T21:29:49.370Z,7.23
2018-09-01T21:32:23.986Z,11.30
2018-09-01T21:34:58.753Z,8.43
2018-09-01T21:37:33.311Z,6.27
2018-09-01T21:40:07.942Z,9.23
2018-09-01T21:42:42.641Z,7.10
2018-09-01T21:45:17.241Z,8.30
2018-09-01T21:47:51.990Z,7.97
2018-09-01T21:50:26.750Z,5.90
2018-09-01T21:53:01.306Z,7.10
2018-09-01T21:55:35.998Z,9.83
2018-09-01T22:00:51.122Z,9.23
2018-09-01T22:03:25.791Z,7.57
2018-09-01T22:06:00.981Z,9.10
2018-09-01T22:08:35.488Z,9.57
2018-09-01T22:11:10.214Z,8.57
2018-09-01T22:13:44.739Z,8.73
2018-09-01T22:16:19.555Z,7.57
2018-09-01T22:18:54.106Z,8.17
2018-09-01T22:21:28.755Z,12.10
2018-09-01T22:24:03.355Z,8.33
2018-09-01T22:26:38.054Z,9.20
2018-09-01T22:29:12.707Z,7.13
2018-09-01T22:31:47.453Z,7.93
2018-09-01T22:34:22.019Z,8.50
2018-09-01T22:36:56.992Z,7.77
2018-09-01T22:39:31.485Z,7.60
2018-09-01T22:42:06.384Z,8.80
2018-09-01T22:44:41.046Z,8.23
2018-09-01T22:47:21.171Z,10.90
2018-09-01T22:49:56.051Z,7.43
2018-09-01T22:52:30.569Z,6.73
2018-09-01T22:55:05.197Z,9.40
2018-09-01T22:57:39.862Z,8.50
2018-09-01T23:00:14.346Z,7.87
2018-09-01T23:02:48.943Z,8.87
2018-09-01T23:05:23.642Z,7.87
2018-09-01T23:07:58.347Z,7.13
2018-09-01T23:10:33.093Z,6.47
2018-09-01T23:13:07.557Z,7.00
2018-09-01T23:15:42.323Z,7.67
2018-09-01T23:18:16.969Z,8.73
2018-09-01T23:20:51.624Z,7.23
2018-09-01T23:23:26.168Z,9.13
2018-09-01T23:26:01.206Z,10.07
2018-09-01T23:28:36.180Z,8.00
2018-09-01T23:31:11.025Z,8.67
2018-09-01T23:33:45.656Z,6.83
2018-09-01T23:36:20.387Z,8.60
2018-09-01T23:38:54.926Z,7.63
2018-09-01T23:41:29.510Z,8.37
2018-09-01T23:44:04.034Z,8.90
2018-09-01T23:46:38.975Z,9.80
2018-09-01T23:49:13.635Z,9.17
2018-09-01T23:51:48.363Z,8.73
2018-09-01T23:54:23.008Z,10.43
2018-09-01T23:56:57.659Z,8.67
2018-09-01T23:59:32.255Z,8.20
